createdAt,value
2023-06-19T00:00:32.290Z,11.73
2023-06-19T00:01:34.625Z,12.32
2023-06-19T00:02:36.822Z,18.30
2023-06-19T00:03:39.147Z,12.98
2023-06-19T00:04:41.422Z,13.45
2023-06-19T00:05:43.567Z,12.77
2023-06-19T00:06:45.746Z,16.42
2023-06-19T00:07:47.903Z,16.13
2023-06-19T00:08:50.050Z,13.65
2023-06-19T00:09:52.271Z,15.60
2023-06-19T00:10:55.201Z,14.60
2023-06-19T00:11:57.396Z,16.20
2023-06-19T00:12:59.569Z,14.05
2023-06-19T00:14:02.191Z,12.38
2023-06-19T00:15:04.610Z,15.43
2023-06-19T00:16:06.800Z,13.55
2023-06-19T00:17:09.004Z,15.35
2023-06-19T00:18:11.844Z,12.32
2023-06-19T00:19:14.121Z,15.07
2023-06-19T00:20:16.476Z,14.57
2023-06-19T00:21:18.778Z,15.40
2023-06-19T00:22:21.063Z,11.63
2023-06-19T00:23:24.198Z,14.52
2023-06-19T00:24:26.391Z,13.05
2023-06-19T00:25:28.624Z,13.48
2023-06-19T00:26:30.737Z,13.25
2023-06-19T00:27:32.891Z,12.25
2023-06-19T00:28:35.055Z,12.43
2023-06-19T00:29:37.203Z,13.85
2023-06-19T00:30:39.403Z,13.48
2023-06-19T00:31:42.077Z,12.85
2023-06-19T00:32:51.123Z,18.15
2023-06-19T00:33:53.399Z,15.10
2023-06-19T00:34:55.851Z,13.45
2023-06-19T00:35:58.106Z,13.57
2023-06-19T00:37:00.320Z,15.45
2023-06-19T00:38:02.825Z,13.23
2023-06-19T00:39:05.015Z,13.77
2023-06-19T00:40:09.364Z,13.30
2023-06-19T00:41:11.742Z,12.02
2023-06-19T00:42:13.890Z,14.07
2023-06-19T00:43:16.055Z,13.23
2023-06-19T00:44:18.190Z,17.15
2023-06-19T00:45:20.456Z,16.48
2023-06-19T00:46:22.907Z,12.88
2023-06-19T00:47:26.818Z,14.05
2023-06-19T00:48:29.922Z,15.15
2023-06-19T00:49:32.529Z,12.65
2023-06-19T00:50:34.732Z,12.32
2023-06-19T00:51:36.926Z,16.15
2023-06-19T00:52:39.118Z,15.07
2023-06-19T00:53:41.367Z,14.27
2023-06-19T00:54:43.560Z,13.10
2023-06-19T00:55:45.906Z,12.88
2023-06-19T00:56:48.656Z,15.32
2023-06-19T00:57:51.144Z,11.95
2023-06-19T00:58:54.377Z,16.05
2023-06-19T00:59:56.640Z,15.77
2023-06-19T01:01:07.961Z,15.85
2023-06-19T01:02:12.293Z,17.38
2023-06-19T01:03:17.808Z,16.65
2023-06-19T01:04:21.245Z,13.75
2023-06-19T01:05:23.551Z,19.92
2023-06-19T01:06:29.326Z,14.38
2023-06-19T01:07:43.389Z,13.77
2023-06-19T01:08:57.407Z,14.18
2023-06-19T01:10:05.464Z,14.88
2023-06-19T01:11:18.301Z,14.25
2023-06-19T01:12:40.159Z,14.73
2023-06-19T01:14:01.299Z,15.88
2023-06-19T01:15:06.335Z,13.00
2023-06-19T01:16:08.652Z,19.55
2023-06-19T01:17:11.130Z,14.60
2023-06-19T01:18:13.569Z,17.98
2023-06-19T01:19:27.069Z,17.17
2023-06-19T01:20:29.912Z,13.77
2023-06-19T01:21:32.065Z,14.30
2023-06-19T01:22:34.213Z,15.93
2023-06-19T01:23:36.365Z,14.05
2023-06-19T01:24:38.553Z,12.15
2023-06-19T01:25:40.778Z,14.50
2023-06-19T01:26:43.163Z,14.68
2023-06-19T01:27:45.659Z,14.05
2023-06-19T01:28:48.062Z,16.63
2023-06-19T01:29:50.805Z,13.70
2023-06-19T01:30:53.253Z,15.23
2023-06-19T01:32:06.426Z,15.48
2023-06-19T01:33:17.913Z,14.38
2023-06-19T01:34:21.328Z,13.95
2023-06-19T01:35:27.832Z,15.38
2023-06-19T01:36:30.217Z,14.43
2023-06-19T01:37:34.471Z,13.82
2023-06-19T01:38:37.113Z,13.52
2023-06-19T01:39:40.488Z,13.40
2023-06-19T01:40:43.155Z,15.57
2023-06-19T01:41:45.672Z,12.43
2023-06-19T01:42:48.199Z,15.05
2023-06-19T01:43:50.493Z,15.60
2023-06-19T01:44:52.822Z,14.70
2023-06-19T01:45:55.117Z,13.68
2023-06-19T01:46:57.470Z,14.57
2023-06-19T01:47:59.856Z,12.45
2023-06-19T01:49:02.073Z,13.77
2023-06-19T01:50:04.342Z,13.65
2023-06-19T01:51:06.642Z,15.82
2023-06-19T01:52:09.745Z,13.20
2023-06-19T01:53:11.959Z,13.82
2023-06-19T01:54:14.123Z,13.85
2023-06-19T01:55:16.383Z,12.68
2023-06-19T01:56:18.588Z,16.23
2023-06-19T01:57:20.888Z,16.45
2023-06-19T01:58:23.064Z,13.30
2023-06-19T01:59:25.234Z,12.73
2023-06-19T02:00:27.383Z,13.48
2023-06-19T02:01:29.914Z,13.82
2023-06-19T02:02:32.160Z,14.18
2023-06-19T02:03:34.502Z,14.38
2023-06-19T02:04:36.717Z,14.13
2023-06-19T02:05:40.918Z,13.43
2023-06-19T02:06:43.326Z,13.77
2023-06-19T02:07:45.555Z,15.50
2023-06-19T02:08:49.351Z,13.18
2023-06-19T02:09:51.524Z,14.35
2023-06-19T02:10:53.687Z,13.75
2023-06-19T02:11:55.836Z,12.70
2023-06-19T02:12:57.988Z,12.80
2023-06-19T02:14:00.201Z,17.30
2023-06-19T02:15:02.369Z,14.13
2023-06-19T02:16:05.113Z,13.77
2023-06-19T02:17:07.557Z,15.38
2023-06-19T02:18:09.700Z,13.40
2023-06-19T02:19:12.390Z,12.77
2023-06-19T02:20:14.572Z,14.48
2023-06-19T02:21:17.084Z,14.23
2023-06-19T02:22:19.460Z,15.23
2023-06-19T02:23:21.718Z,13.75
2023-06-19T02:24:23.955Z,14.05
2023-06-19T02:25:26.163Z,16.33
2023-06-19T02:26:30.353Z,16.27
2023-06-19T02:27:50.838Z,13.20
2023-06-19T02:28:52.978Z,15.40
2023-06-19T02:29:55.116Z,15.18
2023-06-19T02:30:57.276Z,14.50
2023-06-19T02:31:59.391Z,14.80
2023-06-19T02:33:01.578Z,16.23
2023-06-19T02:34:04.979Z,17.60
2023-06-19T02:35:10.201Z,14.43
2023-06-19T02:36:12.458Z,15.68
2023-06-19T02:37:14.638Z,13.10
2023-06-19T02:38:16.902Z,17.05
2023-06-19T02:39:19.374Z,15.30
2023-06-19T02:40:21.769Z,15.05
2023-06-19T02:41:24.255Z,16.35
2023-06-19T02:42:26.448Z,16.27
2023-06-19T02:43:28.604Z,14.65
2023-06-19T02:44:30.711Z,13.63
2023-06-19T02:45:32.858Z,14.40
2023-06-19T02:46:35.100Z,14.15
2023-06-19T02:47:37.397Z,14.25
2023-06-19T02:48:39.565Z,16.52
2023-06-19T02:49:41.769Z,13.77
2023-06-19T02:50:43.921Z,16.48
2023-06-19T02:51:46.100Z,17.20
2023-06-19T02:52:48.561Z,14.07
2023-06-19T02:53:50.800Z,15.73
2023-06-19T02:54:53.011Z,16.95
2023-06-19T02:55:55.176Z,14.45
2023-06-19T02:56:57.336Z,14.73
2023-06-19T02:57:59.544Z,16.30
2023-06-19T02:59:01.676Z,14.38
2023-06-19T03:00:07.170Z,15.23
2023-06-19T03:01:09.977Z,15.30
2023-06-19T03:02:12.644Z,17.63
2023-06-19T03:03:14.922Z,16.52
2023-06-19T03:04:17.161Z,15.27
2023-06-19T03:05:19.304Z,16.20
2023-06-19T03:06:21.430Z,16.95
2023-06-19T03:07:23.586Z,18.30
2023-06-19T03:08:25.796Z,19.27
2023-06-19T03:09:28.029Z,16.38
2023-06-19T03:10:30.295Z,19.98
2023-06-19T03:11:32.430Z,15.38
2023-06-19T03:12:34.599Z,16.67
2023-06-19T03:13:50.852Z,15.23
2023-06-19T03:14:53.038Z,19.40
2023-06-19T03:15:55.266Z,16.60
2023-06-19T03:16:57.414Z,15.85
2023-06-19T03:17:59.752Z,15.70
2023-06-19T03:19:02.152Z,16.55
2023-06-19T03:20:06.966Z,13.60
2023-06-19T03:21:09.252Z,14.75
2023-06-19T03:22:11.385Z,13.02
2023-06-19T03:23:13.570Z,13.98
2023-06-19T03:24:15.782Z,15.00
2023-06-19T03:25:21.102Z,17.80
2023-06-19T03:26:23.552Z,17.23
2023-06-19T03:27:27.619Z,16.52
2023-06-19T03:28:29.960Z,15.73
2023-06-19T03:29:32.093Z,16.15
2023-06-19T03:30:34.268Z,17.75
2023-06-19T03:31:36.468Z,15.07
2023-06-19T03:32:38.941Z,16.67
2023-06-19T03:33:41.136Z,16.42
2023-06-19T03:34:43.459Z,15.25
2023-06-19T03:35:45.666Z,16.48
2023-06-19T03:36:47.837Z,13.40
2023-06-19T03:37:49.944Z,16.65
2023-06-19T03:38:54.902Z,18.33
2023-06-19T03:39:57.115Z,17.27
2023-06-19T03:40:59.275Z,18.05
2023-06-19T03:42:01.569Z,15.23
2023-06-19T03:43:03.837Z,15.45
2023-06-19T03:44:06.164Z,15.40
2023-06-19T03:45:08.696Z,16.95
2023-06-19T03:46:10.859Z,15.55
2023-06-19T03:47:13.010Z,16.52
2023-06-19T03:48:17.799Z,16.83
2023-06-19T03:49:20.132Z,16.92
2023-06-19T03:50:23.486Z,14.55
2023-06-19T03:51:30.205Z,13.27
2023-06-19T03:53:34.548Z,18.48
2023-06-19T03:54:36.720Z,18.48
2023-06-19T03:55:38.933Z,16.42
2023-06-19T03:56:41.205Z,16.98
2023-06-19T03:57:43.347Z,12.95
2023-06-19T03:58:45.537Z,15.00
2023-06-19T03:59:48.350Z,16.23
2023-06-19T04:00:50.542Z,15.43
2023-06-19T04:01:52.709Z,15.02
2023-06-19T04:02:55.075Z,16.35
2023-06-19T04:03:57.371Z,18.65
2023-06-19T04:04:59.596Z,14.98
2023-06-19T04:06:01.752Z,17.80
2023-06-19T04:07:04.035Z,18.13
2023-06-19T04:08:06.205Z,19.73
2023-06-19T04:09:08.406Z,17.83
2023-06-19T04:10:12.576Z,18.98
2023-06-19T04:11:15.124Z,19.33
2023-06-19T04:12:17.325Z,16.88
2023-06-19T04:13:19.460Z,15.23
2023-06-19T04:14:24.128Z,15.68
2023-06-19T04:15:26.340Z,17.20
2023-06-19T04:16:28.587Z,14.38
2023-06-19T04:17:30.827Z,15.40
2023-06-19T04:18:32.987Z,17.33
2023-06-19T04:19:35.117Z,15.05
2023-06-19T04:20:37.338Z,16.15
2023-06-19T04:21:39.456Z,16.20
2023-06-19T04:22:42.369Z,15.75
2023-06-19T04:23:44.476Z,17.70
2023-06-19T04:24:46.642Z,14.68
2023-06-19T04:25:48.938Z,18.42
2023-06-19T04:26:51.087Z,13.98
2023-06-19T04:27:53.228Z,15.57
2023-06-19T04:28:55.474Z,13.50
2023-06-19T04:29:57.617Z,14.38
2023-06-19T04:31:02.329Z,19.92
2023-06-19T04:32:12.791Z,14.73
2023-06-19T04:33:15.135Z,13.60
2023-06-19T04:34:21.983Z,14.80
2023-06-19T04:35:24.922Z,15.48
2023-06-19T04:36:27.079Z,17.33
2023-06-19T04:37:29.251Z,12.13
2023-06-19T04:38:31.476Z,18.67
2023-06-19T04:39:33.674Z,13.00
2023-06-19T04:40:35.942Z,16.58
2023-06-19T04:41:39.686Z,14.00
2023-06-19T04:42:41.890Z,13.60
2023-06-19T04:43:44.027Z,14.48
2023-06-19T04:44:49.341Z,14.90
2023-06-19T04:45:51.525Z,13.65
2023-06-19T04:47:02.034Z,15.07
2023-06-19T04:48:04.734Z,12.07
2023-06-19T04:49:07.006Z,19.35
2023-06-19T04:50:09.408Z,16.15
2023-06-19T04:51:11.590Z,14.20
2023-06-19T04:52:13.748Z,17.55
2023-06-19T04:53:15.925Z,15.35
2023-06-19T04:54:18.079Z,13.15
2023-06-19T04:55:20.610Z,13.57
2023-06-19T04:56:22.828Z,13.48
2023-06-19T04:57:25.145Z,13.32
2023-06-19T04:58:27.435Z,15.75
2023-06-19T04:59:31.370Z,15.68
2023-06-19T05:00:33.523Z,14.85
2023-06-19T05:01:36.634Z,15.05
2023-06-19T05:02:38.858Z,15.93
2023-06-19T05:03:41.539Z,14.55
2023-06-19T05:04:44.734Z,13.02
2023-06-19T05:05:46.961Z,13.48
2023-06-19T05:06:52.024Z,12.40
2023-06-19T05:07:54.174Z,15.65
2023-06-19T05:08:56.368Z,14.68
2023-06-19T05:09:59.029Z,15.10
2023-06-19T05:11:01.378Z,16.40
2023-06-19T05:12:03.760Z,13.77
2023-06-19T05:13:05.928Z,11.88
2023-06-19T05:14:08.174Z,15.27
2023-06-19T05:15:10.785Z,13.07
2023-06-19T05:16:17.336Z,14.00
2023-06-19T05:17:19.770Z,14.35
2023-06-19T05:18:22.020Z,12.60
2023-06-19T05:19:24.251Z,14.65
2023-06-19T05:20:26.618Z,13.70
2023-06-19T05:21:28.985Z,11.73
2023-06-19T05:22:32.702Z,14.68
2023-06-19T05:23:34.985Z,13.65
2023-06-19T05:24:37.193Z,11.82
2023-06-19T05:25:39.488Z,13.15
2023-06-19T05:26:41.692Z,14.85
2023-06-19T05:27:43.895Z,12.80
2023-06-19T05:28:46.041Z,20.83
2023-06-19T05:29:48.156Z,13.52
2023-06-19T05:30:51.309Z,12.02
2023-06-19T05:31:53.493Z,12.40
2023-06-19T05:32:55.688Z,16.55
2023-06-19T05:33:59.738Z,14.50
2023-06-19T05:35:02.436Z,15.43
2023-06-19T05:36:04.846Z,14.20
2023-06-19T05:37:07.008Z,14.70
2023-06-19T05:38:09.218Z,14.93
2023-06-19T05:39:11.517Z,13.32
2023-06-19T05:40:13.875Z,15.82
2023-06-19T05:41:17.288Z,14.38
2023-06-19T05:42:19.542Z,13.38
2023-06-19T05:43:21.758Z,12.90
2023-06-19T05:44:23.907Z,16.13
2023-06-19T05:45:26.051Z,14.93
2023-06-19T05:46:28.423Z,19.92
2023-06-19T05:47:31.678Z,14.18
2023-06-19T05:48:33.868Z,13.80
2023-06-19T05:49:36.058Z,14.85
2023-06-19T05:50:38.169Z,14.23
2023-06-19T05:51:40.510Z,17.02
2023-06-19T05:52:44.387Z,14.35
2023-06-19T05:53:47.705Z,15.23
2023-06-19T05:54:49.853Z,16.08
2023-06-19T05:55:52.082Z,15.02
2023-06-19T05:56:54.464Z,13.00
2023-06-19T05:57:57.192Z,15.00
2023-06-19T05:58:59.394Z,12.25
2023-06-19T06:00:01.689Z,13.13
2023-06-19T06:01:04.243Z,15.52
2023-06-19T06:02:07.330Z,18.95
2023-06-19T06:03:09.486Z,15.32
2023-06-19T06:04:11.746Z,13.15
2023-06-19T06:05:14.022Z,13.48
2023-06-19T06:06:16.208Z,14.07
2023-06-19T06:07:18.376Z,16.50
2023-06-19T06:08:20.680Z,15.88
2023-06-19T06:09:22.991Z,12.32
2023-06-19T06:10:26.563Z,14.63
2023-06-19T06:11:28.994Z,18.15
2023-06-19T06:12:31.124Z,13.05
2023-06-19T06:13:33.277Z,12.40
2023-06-19T06:14:36.161Z,14.02
2023-06-19T06:15:38.311Z,13.10
2023-06-19T06:16:40.631Z,12.65
2023-06-19T06:17:43.111Z,13.25
2023-06-19T06:18:46.332Z,19.10
2023-06-19T06:19:48.565Z,16.85
2023-06-19T06:20:50.885Z,13.68
2023-06-19T06:21:53.108Z,19.20
2023-06-19T06:22:55.445Z,13.13
2023-06-19T06:23:57.621Z,18.63
2023-06-19T06:24:59.839Z,14.57
2023-06-19T06:26:04.875Z,14.23
2023-06-19T06:27:07.438Z,14.52
2023-06-19T06:28:09.639Z,15.82
2023-06-19T06:29:11.991Z,13.52
2023-06-19T06:30:14.373Z,12.75
2023-06-19T06:31:16.641Z,14.63
2023-06-19T06:32:19.417Z,11.82
2023-06-19T06:33:21.624Z,15.20
2023-06-19T06:34:23.916Z,13.85
2023-06-19T06:35:26.051Z,12.77
2023-06-19T06:36:36.290Z,16.58
2023-06-19T06:37:39.426Z,12.98
2023-06-19T06:38:41.563Z,15.18
2023-06-19T06:39:43.742Z,18.33
2023-06-19T06:40:46.059Z,14.85
2023-06-19T06:41:48.201Z,13.88
2023-06-19T06:42:50.572Z,13.85
2023-06-19T06:43:53.423Z,14.05
2023-06-19T06:44:55.562Z,12.18
2023-06-19T06:45:57.849Z,17.15
2023-06-19T06:47:00.162Z,12.20
2023-06-19T06:48:02.446Z,16.15
2023-06-19T06:49:04.696Z,16.77
2023-06-19T06:50:08.320Z,13.23
2023-06-19T06:51:11.725Z,16.17
2023-06-19T06:52:14.409Z,15.40
2023-06-19T06:53:16.604Z,13.10
2023-06-19T06:54:18.767Z,12.07
2023-06-19T06:55:20.988Z,14.25
2023-06-19T06:56:23.124Z,14.15
2023-06-19T06:57:25.309Z,12.85
2023-06-19T06:58:28.463Z,12.27
2023-06-19T06:59:30.684Z,12.35
2023-06-19T07:00:32.894Z,14.00
2023-06-19T07:01:35.183Z,11.05
2023-06-19T07:02:39.014Z,11.48
2023-06-19T07:03:41.276Z,14.23
2023-06-19T07:04:43.456Z,10.52
2023-06-19T07:05:45.764Z,11.40
2023-06-19T07:06:48.106Z,11.95
2023-06-19T07:07:50.235Z,14.65
2023-06-19T07:08:52.442Z,12.80
2023-06-19T07:09:54.715Z,13.65
2023-06-19T07:10:56.859Z,11.68
2023-06-19T07:11:59.065Z,13.75
2023-06-19T07:13:01.299Z,12.32
2023-06-19T07:14:03.872Z,14.13
2023-06-19T07:15:06.412Z,12.48
2023-06-19T07:16:09.133Z,10.73
2023-06-19T07:17:11.376Z,12.75
2023-06-19T07:18:13.843Z,13.73
2023-06-19T07:19:16.120Z,12.25
2023-06-19T07:20:18.323Z,14.27
2023-06-19T07:21:20.543Z,23.33
2023-06-19T07:22:22.713Z,13.30
2023-06-19T07:23:24.946Z,11.98
2023-06-19T07:24:27.178Z,15.18
2023-06-19T07:25:29.500Z,15.30
2023-06-19T07:26:32.057Z,13.65
2023-06-19T07:27:34.305Z,14.25
2023-06-19T07:28:37.503Z,11.68
2023-06-19T07:29:39.681Z,11.13
2023-06-19T07:30:42.336Z,14.25
2023-06-19T07:31:44.580Z,10.85
2023-06-19T07:32:46.818Z,10.23
2023-06-19T07:33:49.075Z,12.75
2023-06-19T07:34:51.248Z,13.63
2023-06-19T07:35:53.387Z,13.80
2023-06-19T07:36:55.528Z,13.75
2023-06-19T07:37:57.695Z,13.68
2023-06-19T07:38:59.871Z,13.32
2023-06-19T07:40:02.036Z,11.57
2023-06-19T07:41:04.160Z,11.18
2023-06-19T07:42:06.444Z,14.18
2023-06-19T07:43:08.748Z,12.27
2023-06-19T07:44:10.903Z,14.05
2023-06-19T07:45:13.907Z,12.95
2023-06-19T07:46:16.713Z,10.95
2023-06-19T07:47:19.857Z,16.50
2023-06-19T07:48:24.646Z,14.15
2023-06-19T07:49:26.832Z,12.98
2023-06-19T07:50:29.333Z,21.70
2023-06-19T07:51:32.153Z,14.40
2023-06-19T07:52:35.220Z,13.48
2023-06-19T07:53:37.381Z,11.52
2023-06-19T07:54:58.277Z,11.45
2023-06-19T07:56:00.565Z,14.30
2023-06-19T07:57:03.006Z,10.95
2023-06-19T07:58:05.135Z,10.30
2023-06-19T07:59:07.268Z,13.27
2023-06-19T08:00:12.740Z,11.20
2023-06-19T08:01:15.019Z,12.95
2023-06-19T08:02:17.800Z,14.15
2023-06-19T08:03:20.154Z,13.77
2023-06-19T08:04:22.504Z,11.20
2023-06-19T08:05:24.860Z,14.23
2023-06-19T08:06:27.070Z,14.20
2023-06-19T08:07:29.237Z,13.48
2023-06-19T08:08:31.417Z,11.18
2023-06-19T08:09:34.184Z,9.77
2023-06-19T08:10:36.324Z,12.20
2023-06-19T08:11:38.516Z,9.63
2023-06-19T08:12:43.269Z,12.63
2023-06-19T08:13:45.395Z,10.13
2023-06-19T08:14:47.583Z,11.73
2023-06-19T08:15:49.798Z,10.15
2023-06-19T08:16:52.011Z,13.07
2023-06-19T08:17:54.213Z,12.82
2023-06-19T08:18:56.425Z,10.82
2023-06-19T08:19:58.594Z,11.68
2023-06-19T08:21:00.794Z,9.60
2023-06-19T08:22:03.778Z,12.77
2023-06-19T08:23:06.900Z,9.65
2023-06-19T08:24:09.176Z,9.02
2023-06-19T08:25:11.588Z,9.50
2023-06-19T08:26:13.732Z,10.25
2023-06-19T08:27:16.442Z,9.32
2023-06-19T08:28:18.620Z,11.40
2023-06-19T08:29:20.865Z,10.82
2023-06-19T08:30:23.388Z,9.50
2023-06-19T08:31:28.593Z,8.45
2023-06-19T08:32:30.858Z,10.68
2023-06-19T08:33:35.818Z,10.57
2023-06-19T08:34:39.229Z,10.13
2023-06-19T08:35:41.486Z,8.95
2023-06-19T08:36:43.673Z,10.68
2023-06-19T08:37:45.821Z,8.85
2023-06-19T08:38:50.445Z,11.20
2023-06-19T08:39:52.608Z,10.73
2023-06-19T08:40:56.460Z,9.70
2023-06-19T08:41:58.700Z,8.20
2023-06-19T08:43:00.819Z,9.18
2023-06-19T08:44:04.386Z,9.73
2023-06-19T08:45:08.180Z,8.73
2023-06-19T08:46:16.120Z,8.50
2023-06-19T08:47:18.379Z,10.48
2023-06-19T08:48:21.912Z,8.93
2023-06-19T08:49:24.182Z,7.97
2023-06-19T08:50:27.241Z,8.98
2023-06-19T08:51:31.543Z,11.10
2023-06-19T08:52:33.736Z,12.07
2023-06-19T08:53:38.905Z,8.05
2023-06-19T08:54:44.918Z,8.77
2023-06-19T08:55:47.682Z,9.63
2023-06-19T08:56:49.966Z,8.75
2023-06-19T08:57:53.800Z,8.60
2023-06-19T08:58:55.974Z,9.20
2023-06-19T08:59:58.236Z,10.85
2023-06-19T09:01:00.608Z,9.52
2023-06-19T09:02:03.891Z,10.57
2023-06-19T09:03:13.905Z,9.32
2023-06-19T09:04:16.776Z,8.23
2023-06-19T09:05:20.185Z,12.30
2023-06-19T09:06:22.494Z,12.85
2023-06-19T09:07:24.783Z,9.20
2023-06-19T09:08:27.011Z,20.00
2023-06-19T09:09:29.313Z,11.30
2023-06-19T09:10:31.984Z,11.50
2023-06-19T09:11:34.152Z,15.10
2023-06-19T09:12:36.780Z,20.55
2023-06-19T09:13:39.187Z,13.35
2023-06-19T09:14:43.770Z,8.98
2023-06-19T09:15:46.384Z,11.32
2023-06-19T09:16:48.652Z,11.52
2023-06-19T09:18:07.223Z,9.57
2023-06-19T09:19:09.503Z,10.43
2023-06-19T09:20:12.720Z,9.77
2023-06-19T09:21:19.637Z,8.88
2023-06-19T09:22:22.884Z,8.55
2023-06-19T09:23:25.888Z,8.82
2023-06-19T09:24:35.856Z,8.65
2023-06-19T09:25:54.387Z,9.95
2023-06-19T09:27:10.288Z,8.40
2023-06-19T09:28:26.524Z,7.80
2023-06-19T09:29:28.690Z,10.15
2023-06-19T09:30:30.845Z,8.55
2023-06-19T09:31:34.899Z,8.77
2023-06-19T09:32:37.280Z,11.85
2023-06-19T09:33:40.703Z,10.85
2023-06-19T09:34:42.940Z,9.68
2023-06-19T09:35:45.488Z,6.55
2023-06-19T09:36:47.660Z,7.68
2023-06-19T09:37:50.280Z,9.73
2023-06-19T09:38:53.744Z,7.32
2023-06-19T09:40:00.438Z,7.53
2023-06-19T09:41:04.065Z,8.02
2023-06-19T09:42:10.618Z,7.88
2023-06-19T09:43:13.368Z,7.38
2023-06-19T09:44:16.260Z,7.47
2023-06-19T09:45:20.081Z,7.90
2023-06-19T09:46:23.178Z,8.35
2023-06-19T09:47:26.698Z,9.45
2023-06-19T09:48:30.873Z,8.77
2023-06-19T09:49:33.658Z,6.40
2023-06-19T09:50:38.797Z,7.60
2023-06-19T09:51:43.107Z,11.23
2023-06-19T09:53:52.003Z,9.68
2023-06-19T09:54:55.526Z,8.27
2023-06-19T09:55:57.849Z,7.78
2023-06-19T09:57:01.322Z,9.25
2023-06-19T09:58:04.185Z,9.45
2023-06-19T09:59:10.483Z,8.25
2023-06-19T10:00:14.104Z,9.40
2023-06-19T10:01:19.672Z,7.70
2023-06-19T10:02:22.978Z,7.85
2023-06-19T10:03:33.115Z,8.93
2023-06-19T10:04:50.652Z,9.00
2023-06-19T10:05:59.913Z,11.68
2023-06-19T10:07:02.225Z,8.23
2023-06-19T10:08:06.004Z,9.35
2023-06-19T10:09:11.269Z,7.72
2023-06-19T10:10:24.799Z,11.27
2023-06-19T10:11:28.555Z,7.00
2023-06-19T10:12:45.039Z,9.63
2023-06-19T10:13:47.243Z,7.32
2023-06-19T10:14:52.256Z,8.27
2023-06-19T10:15:54.689Z,8.88
2023-06-19T10:16:56.875Z,8.77
2023-06-19T10:18:04.109Z,8.80
2023-06-19T10:19:14.803Z,14.35
2023-06-19T10:20:24.610Z,8.98
2023-06-19T10:21:27.013Z,10.02
2023-06-19T10:22:32.492Z,9.77
2023-06-19T10:23:38.403Z,8.55
2023-06-19T10:24:50.620Z,10.30
2023-06-19T10:25:55.650Z,7.88
2023-06-19T10:27:02.226Z,7.28
2023-06-19T10:28:08.389Z,9.02
2023-06-19T10:29:18.165Z,7.95
2023-06-19T10:30:21.209Z,7.53
2023-06-19T10:31:24.138Z,9.35
2023-06-19T10:32:26.308Z,9.90
2023-06-19T10:33:30.393Z,7.60
2023-06-19T10:34:36.247Z,8.52
2023-06-19T10:35:42.368Z,8.15
2023-06-19T10:36:44.760Z,7.35
2023-06-19T10:37:46.940Z,7.38
2023-06-19T10:38:49.214Z,10.93
2023-06-19T10:39:51.409Z,8.00
2023-06-19T10:40:53.679Z,7.55
2023-06-19T10:41:55.829Z,10.63
2023-06-19T10:42:57.989Z,8.77
2023-06-19T10:44:01.374Z,8.20
2023-06-19T10:45:08.140Z,8.45
2023-06-19T10:46:10.431Z,8.35
2023-06-19T10:47:12.722Z,10.40
2023-06-19T10:48:23.181Z,7.88
2023-06-19T10:49:25.443Z,9.10
2023-06-19T10:50:27.661Z,9.85
2023-06-19T10:51:29.935Z,8.27
2023-06-19T10:52:32.319Z,8.40
2023-06-19T10:53:34.933Z,8.40
2023-06-19T10:54:37.114Z,7.75
2023-06-19T10:55:39.294Z,9.18
2023-06-19T10:56:41.954Z,8.68
2023-06-19T10:57:47.408Z,15.88
2023-06-19T10:58:49.712Z,15.00
2023-06-19T10:59:52.462Z,12.02
2023-06-19T11:00:54.694Z,14.80
2023-06-19T11:01:56.847Z,22.95
2023-06-19T11:02:59.799Z,11.15
2023-06-19T11:04:04.618Z,8.95
2023-06-19T11:05:07.381Z,11.30
2023-06-19T11:06:09.564Z,9.30
2023-06-19T11:07:11.698Z,8.73
2023-06-19T11:08:19.675Z,13.07
2023-06-19T11:09:22.657Z,23.42
2023-06-19T11:10:27.026Z,17.33
2023-06-19T11:11:46.493Z,9.38
2023-06-19T11:12:48.647Z,11.13
2023-06-19T11:13:50.873Z,10.88
2023-06-19T11:14:53.240Z,16.38
2023-06-19T11:15:55.398Z,12.35
2023-06-19T11:16:57.621Z,10.93
2023-06-19T11:18:01.098Z,8.10
2023-06-19T11:19:03.357Z,9.00
2023-06-19T11:20:11.321Z,11.73
2023-06-19T11:21:13.467Z,7.75
2023-06-19T11:22:15.784Z,7.95
2023-06-19T11:23:28.348Z,8.68
2023-06-19T11:24:31.128Z,8.75
2023-06-19T11:25:40.788Z,10.45
2023-06-19T11:26:50.359Z,8.43
2023-06-19T11:27:53.273Z,8.20
2023-06-19T11:28:55.806Z,9.05
2023-06-19T11:30:01.067Z,10.70
2023-06-19T11:31:04.653Z,8.05
2023-06-19T11:32:24.079Z,11.00
2023-06-19T11:33:26.332Z,7.50
2023-06-19T11:34:37.674Z,8.23
2023-06-19T11:35:40.448Z,7.68
2023-06-19T11:36:43.482Z,8.82
2023-06-19T11:37:45.654Z,10.77
2023-06-19T11:38:48.186Z,9.00
2023-06-19T11:39:52.034Z,9.13
2023-06-19T11:40:55.793Z,7.53
2023-06-19T11:42:00.415Z,11.05
2023-06-19T11:43:02.638Z,7.80
2023-06-19T11:44:06.057Z,8.38
2023-06-19T11:45:09.395Z,9.68
2023-06-19T11:46:11.641Z,8.10
2023-06-19T11:47:13.871Z,8.35
2023-06-19T11:48:23.288Z,7.70
2023-06-19T11:49:26.179Z,7.53
2023-06-19T11:50:29.145Z,9.48
2023-06-19T11:51:31.764Z,7.75
2023-06-19T11:52:33.953Z,8.63
2023-06-19T11:53:36.295Z,7.57
2023-06-19T11:54:38.452Z,8.52
2023-06-19T11:55:40.626Z,10.85
2023-06-19T11:56:42.913Z,8.95
2023-06-19T11:57:45.162Z,8.05
2023-06-19T11:58:47.397Z,7.28
2023-06-19T11:59:49.591Z,9.00
2023-06-19T12:00:51.838Z,9.75
2023-06-19T12:01:54.304Z,8.30
2023-06-19T12:02:58.497Z,7.72
2023-06-19T12:04:02.047Z,9.80
2023-06-19T12:05:04.533Z,7.80
2023-06-19T12:06:06.663Z,7.78
2023-06-19T12:07:09.082Z,8.55
2023-06-19T12:08:11.313Z,9.45
2023-06-19T12:09:13.546Z,7.70
2023-06-19T12:10:15.733Z,7.55
2023-06-19T12:11:17.928Z,9.65
2023-06-19T12:12:20.046Z,8.00
2023-06-19T12:13:22.207Z,10.27
2023-06-19T12:14:25.718Z,12.23
2023-06-19T12:15:27.947Z,9.10
2023-06-19T12:16:30.160Z,12.18
2023-06-19T12:17:32.571Z,8.90
2023-06-19T12:18:34.910Z,7.32
2023-06-19T12:19:37.154Z,7.53
2023-06-19T12:20:39.358Z,8.30
2023-06-19T12:21:43.069Z,8.38
2023-06-19T12:22:45.530Z,7.43
2023-06-19T12:23:47.671Z,14.10
2023-06-19T12:24:49.813Z,7.95
2023-06-19T12:25:51.981Z,11.30
2023-06-19T12:26:54.161Z,10.25
2023-06-19T12:27:56.329Z,8.77
2023-06-19T12:28:58.490Z,10.45
2023-06-19T12:30:00.659Z,8.63
2023-06-19T12:31:04.621Z,8.75
2023-06-19T12:32:07.469Z,8.27
2023-06-19T12:33:09.736Z,6.90
2023-06-19T12:34:28.857Z,9.25
2023-06-19T12:35:32.324Z,8.35
2023-06-19T12:36:34.555Z,9.00
2023-06-19T12:37:36.853Z,9.52
2023-06-19T12:38:39.777Z,8.77
2023-06-19T12:39:42.895Z,8.48
2023-06-19T12:40:45.209Z,10.68
2023-06-19T12:41:47.421Z,8.20
2023-06-19T12:42:51.522Z,10.00
2023-06-19T12:43:53.759Z,7.97
2023-06-19T12:44:55.899Z,8.02
2023-06-19T12:45:58.253Z,9.02
2023-06-19T12:47:01.643Z,10.73
2023-06-19T12:48:04.067Z,9.95
2023-06-19T12:49:06.526Z,8.57
2023-06-19T12:50:09.253Z,8.45
2023-06-19T12:51:11.517Z,6.95
2023-06-19T12:52:13.646Z,8.55
2023-06-19T12:53:15.804Z,8.13
2023-06-19T12:54:18.007Z,11.18
2023-06-19T12:55:20.171Z,8.05
2023-06-19T12:56:22.368Z,8.30
2023-06-19T12:57:25.172Z,8.80
2023-06-19T12:58:27.405Z,8.68
2023-06-19T12:59:30.629Z,9.90
2023-06-19T13:00:32.827Z,11.05
2023-06-19T13:01:35.085Z,10.63
2023-06-19T13:02:38.112Z,9.27
2023-06-19T13:03:40.477Z,8.90
2023-06-19T13:04:42.715Z,10.90
2023-06-19T13:05:44.975Z,8.60
2023-06-19T13:06:47.234Z,8.30
2023-06-19T13:07:49.436Z,9.90
2023-06-19T13:08:51.790Z,12.57
2023-06-19T13:09:53.964Z,8.90
2023-06-19T13:10:56.146Z,11.43
2023-06-19T13:11:58.308Z,7.88
2023-06-19T13:13:00.484Z,10.75
2023-06-19T13:14:02.788Z,8.23
2023-06-19T13:15:06.207Z,10.98
2023-06-19T13:16:08.433Z,10.90
2023-06-19T13:17:10.724Z,9.35
2023-06-19T13:18:13.112Z,10.02
2023-06-19T13:19:16.377Z,9.35
2023-06-19T13:20:18.584Z,9.90
2023-06-19T13:21:21.460Z,11.73
2023-06-19T13:22:25.008Z,10.40
2023-06-19T13:23:27.376Z,9.30
2023-06-19T13:24:29.522Z,7.88
2023-06-19T13:25:33.778Z,9.95
2023-06-19T13:27:37.989Z,9.02
2023-06-19T13:28:40.126Z,9.98
2023-06-19T13:29:42.514Z,10.90
2023-06-19T13:30:44.715Z,11.45
2023-06-19T13:31:47.363Z,8.43
2023-06-19T13:32:49.561Z,10.20
2023-06-19T13:33:51.728Z,9.68
2023-06-19T13:34:54.028Z,11.93
2023-06-19T13:35:56.260Z,10.30
2023-06-19T13:36:58.451Z,10.15
2023-06-19T13:38:01.152Z,9.43
2023-06-19T13:39:04.052Z,9.13
2023-06-19T13:40:07.222Z,14.95
2023-06-19T13:41:09.383Z,9.35
2023-06-19T13:42:12.162Z,11.43
2023-06-19T13:43:15.640Z,9.65
2023-06-19T13:44:17.862Z,10.32
2023-06-19T13:45:19.996Z,8.95